createdAt,value
2023-01-17T00:01:08.581Z,41.95
2023-01-17T00:04:03.061Z,41.53
2023-01-17T00:06:51.504Z,43.50
2023-01-17T00:09:38.078Z,41.95
2023-01-17T00:12:09.165Z,41.65
2023-01-17T00:14:35.993Z,41.40
2023-01-17T00:17:08.417Z,37.60
2023-01-17T00:19:56.230Z,40.67
2023-01-17T00:22:48.387Z,41.92
2023-01-17T00:25:43.910Z,39.05
2023-01-17T00:28:10.638Z,40.97
2023-01-17T00:30:43.434Z,36.13
2023-01-17T00:33:11.485Z,39.28
2023-01-17T00:35:42.401Z,40.17
2023-01-17T00:38:15.116Z,38.85
2023-01-17T00:40:58.690Z,39.42
2023-01-17T00:43:43.986Z,38.85
2023-01-17T00:49:34.923Z,38.35
2023-01-17T00:52:39.741Z,39.67
2023-01-17T00:55:30.228Z,41.13
2023-01-17T00:58:21.353Z,41.17
2023-01-17T01:01:29.430Z,41.30
2023-01-17T01:04:16.196Z,42.63
2023-01-17T01:07:07.469Z,43.80
2023-01-17T01:10:01.421Z,42.55
2023-01-17T01:12:49.597Z,35.60
2023-01-17T01:15:41.430Z,43.65
2023-01-17T01:18:37.514Z,39.45
2023-01-17T01:21:29.845Z,40.45
2023-01-17T01:24:15.268Z,40.10
2023-01-17T01:27:03.402Z,35.65
2023-01-17T01:30:03.833Z,40.42
2023-01-17T01:33:01.810Z,40.03
2023-01-17T01:35:33.756Z,42.15
2023-01-17T01:38:07.825Z,41.88
2023-01-17T01:40:51.327Z,40.63
2023-01-17T01:44:00.211Z,41.88
2023-01-17T01:46:57.806Z,38.25
2023-01-17T01:49:40.440Z,38.28
2023-01-17T01:52:14.535Z,42.50
2023-01-17T01:54:47.360Z,42.75
2023-01-17T01:57:23.399Z,41.97
2023-01-17T01:59:57.945Z,44.22
2023-01-17T02:02:25.059Z,42.47
2023-01-17T02:05:09.156Z,43.60
2023-01-17T02:07:48.670Z,42.95
2023-01-17T02:10:23.709Z,42.60
2023-01-17T02:12:53.057Z,42.55
2023-01-17T02:15:34.274Z,37.95
2023-01-17T02:18:26.073Z,43.75
2023-01-17T02:21:19.146Z,45.58
2023-01-17T02:26:57.440Z,43.28
2023-01-17T02:29:43.342Z,44.72
2023-01-17T02:32:35.473Z,44.13
2023-01-17T02:35:37.087Z,43.53
2023-01-17T02:38:54.924Z,43.63
2023-01-17T02:41:36.528Z,42.97
2023-01-17T02:44:09.932Z,44.08
2023-01-17T02:46:48.270Z,42.88
2023-01-17T02:49:23.158Z,44.40
2023-01-17T02:52:25.872Z,43.50
2023-01-17T02:55:08.017Z,45.03
2023-01-17T02:58:17.118Z,43.53
2023-01-17T03:01:09.639Z,43.83
2023-01-17T03:03:56.616Z,42.88
2023-01-17T03:06:40.294Z,39.63
2023-01-17T03:09:18.897Z,44.05
2023-01-17T03:11:53.121Z,40.78
2023-01-17T03:14:23.087Z,43.03
2023-01-17T03:16:53.554Z,41.88
2023-01-17T03:19:23.645Z,44.65
2023-01-17T03:22:14.683Z,45.60
2023-01-17T03:24:41.399Z,38.65
2023-01-17T03:27:26.361Z,45.08
2023-01-17T03:30:02.794Z,43.72
2023-01-17T03:32:35.543Z,45.90
2023-01-17T03:35:06.790Z,45.25
2023-01-17T03:37:40.428Z,44.05
2023-01-17T03:40:08.607Z,43.97
2023-01-17T03:42:35.750Z,44.45
2023-01-17T03:45:05.950Z,44.83
2023-01-17T03:47:36.500Z,44.60
2023-01-17T03:50:10.996Z,45.42
2023-01-17T03:52:38.549Z,47.08
2023-01-17T03:55:14.628Z,44.90
2023-01-17T03:57:44.437Z,45.58
2023-01-17T04:00:21.966Z,44.65
2023-01-17T04:02:48.880Z,45.05
2023-01-17T04:05:27.413Z,45.17
2023-01-17T04:08:00.271Z,47.15
2023-01-17T04:13:45.732Z,48.63
2023-01-17T04:16:16.620Z,37.85
2023-01-17T04:18:44.809Z,39.28
2023-01-17T04:21:12.612Z,46.25
2023-01-17T04:23:39.405Z,36.70
2023-01-17T04:26:20.489Z,42.95
2023-01-17T04:28:53.310Z,38.38
2023-01-17T04:31:23.591Z,42.30
2023-01-17T04:33:50.355Z,34.65
2023-01-17T04:36:22.683Z,34.35
2023-01-17T04:38:49.423Z,32.70
2023-01-17T04:41:49.803Z,33.35
2023-01-17T04:44:16.528Z,31.98
2023-01-17T04:46:43.304Z,34.13
2023-01-17T04:49:16.226Z,35.28
2023-01-17T04:51:49.105Z,39.05
2023-01-17T04:54:15.928Z,41.08
2023-01-17T04:56:49.314Z,34.55
2023-01-17T04:59:22.362Z,35.38
2023-01-17T05:01:49.695Z,34.65
2023-01-17T05:04:16.603Z,37.65
2023-01-17T05:06:46.595Z,33.83
2023-01-17T05:09:18.972Z,33.03
2023-01-17T05:12:07.348Z,36.65
2023-01-17T05:14:47.960Z,32.92
2023-01-17T05:17:14.681Z,41.60
2023-01-17T05:19:51.064Z,32.95
2023-01-17T05:22:35.445Z,33.25
2023-01-17T05:25:10.858Z,41.28
2023-01-17T05:27:37.692Z,40.70
2023-01-17T05:30:05.724Z,41.97
2023-01-17T05:32:42.559Z,39.03
2023-01-17T05:35:15.689Z,34.83
2023-01-17T05:37:58.717Z,33.97
2023-01-17T05:40:31.085Z,34.25
2023-01-17T05:42:59.417Z,36.35
2023-01-17T05:45:28.542Z,31.65
2023-01-17T05:47:59.908Z,33.05
2023-01-17T05:50:56.876Z,33.35
2023-01-17T05:53:41.821Z,33.95
2023-01-17T05:56:20.185Z,36.65
2023-01-17T05:58:46.882Z,37.50
2023-01-17T06:01:13.634Z,36.00
2023-01-17T06:03:43.268Z,32.00
2023-01-17T06:06:13.319Z,33.20
2023-01-17T06:08:40.087Z,32.58
2023-01-17T06:11:06.847Z,32.83
2023-01-17T06:13:33.911Z,32.05
2023-01-17T06:16:04.471Z,32.58
2023-01-17T06:18:31.867Z,36.00
2023-01-17T06:20:59.584Z,32.50
2023-01-17T06:23:44.007Z,34.75
2023-01-17T06:26:28.583Z,31.83
2023-01-17T06:28:58.361Z,35.25
2023-01-17T06:31:28.209Z,35.28
2023-01-17T06:33:55.461Z,36.03
2023-01-17T06:36:24.946Z,32.15
2023-01-17T06:39:00.436Z,32.85
2023-01-17T06:41:27.231Z,32.42
2023-01-17T06:43:54.871Z,32.67
2023-01-17T06:46:21.875Z,38.08
2023-01-17T06:49:17.066Z,32.42
2023-01-17T06:51:56.310Z,33.17
2023-01-17T06:54:23.018Z,32.70
2023-01-17T06:56:52.698Z,33.03
2023-01-17T06:59:19.323Z,32.90
2023-01-17T07:01:55.324Z,36.95
2023-01-17T07:04:23.394Z,35.92
2023-01-17T07:06:53.175Z,37.85
2023-01-17T07:09:24.491Z,34.92
2023-01-17T07:12:06.791Z,31.60
2023-01-17T07:14:42.250Z,39.63
2023-01-17T07:17:08.940Z,34.45
2023-01-17T07:19:48.875Z,33.33
2023-01-17T07:22:21.935Z,35.08
2023-01-17T07:24:48.770Z,33.65
2023-01-17T07:27:18.141Z,32.25
2023-01-17T07:29:51.153Z,37.92
2023-01-17T07:32:21.211Z,34.55
2023-01-17T07:34:51.176Z,35.22
2023-01-17T07:37:24.323Z,32.50
2023-01-17T07:39:58.957Z,38.10
2023-01-17T07:42:32.101Z,36.35
2023-01-17T07:45:03.934Z,39.05
2023-01-17T07:47:38.896Z,37.38
2023-01-17T07:50:09.432Z,33.10
2023-01-17T07:53:00.899Z,36.10
2023-01-17T07:55:48.566Z,32.42
2023-01-17T07:58:19.248Z,38.08
2023-01-17T08:03:42.216Z,36.28
2023-01-17T08:06:24.576Z,35.35
2023-01-17T08:09:07.633Z,35.97
2023-01-17T08:11:50.754Z,34.63
2023-01-17T08:14:25.534Z,34.08
2023-01-17T08:16:52.320Z,36.13
2023-01-17T08:19:19.488Z,34.83
2023-01-17T08:24:40.306Z,36.13
2023-01-17T08:27:16.103Z,37.38
2023-01-17T08:29:57.720Z,36.75
2023-01-17T08:32:31.256Z,38.60
2023-01-17T08:38:06.165Z,35.88
2023-01-17T08:40:33.082Z,34.10
2023-01-17T08:43:25.483Z,35.72
2023-01-17T08:46:00.485Z,36.33
2023-01-17T08:48:47.974Z,35.63
2023-01-17T08:51:21.670Z,35.72
2023-01-17T08:53:55.844Z,34.95
2023-01-17T08:56:38.618Z,37.20
2023-01-17T09:02:24.444Z,35.60
2023-01-17T09:04:52.340Z,35.28
2023-01-17T09:07:35.542Z,34.67
2023-01-17T09:10:26.000Z,34.08
2023-01-17T09:15:45.553Z,37.28
2023-01-17T09:18:18.361Z,37.08
2023-01-17T09:20:45.136Z,37.92
2023-01-17T09:23:12.276Z,38.10
2023-01-17T09:25:44.789Z,40.38
2023-01-17T09:30:46.066Z,37.42
2023-01-17T09:33:34.124Z,40.28
2023-01-17T09:36:19.309Z,40.45
2023-01-17T09:39:00.081Z,37.92
2023-01-17T09:42:18.797Z,39.15
2023-01-17T09:45:09.327Z,41.38
2023-01-17T09:47:50.798Z,41.20
2023-01-17T09:50:29.038Z,39.33
2023-01-17T09:53:25.959Z,41.67
2023-01-17T09:56:11.690Z,39.28
2023-01-17T10:01:25.438Z,38.83
2023-01-17T10:04:16.495Z,39.08
2023-01-17T10:07:36.302Z,37.30
2023-01-17T10:10:32.465Z,36.90
2023-01-17T10:13:49.163Z,33.55
2023-01-17T10:20:14.298Z,32.88
2023-01-17T10:26:25.007Z,31.00
2023-01-17T10:29:01.207Z,30.52
2023-01-17T10:31:34.308Z,28.88
2023-01-17T10:34:15.121Z,29.58
2023-01-17T10:36:46.298Z,28.42
2023-01-17T10:39:29.091Z,29.15
2023-01-17T10:42:27.591Z,28.02
2023-01-17T10:48:43.106Z,27.58
2023-01-17T10:51:37.301Z,28.77
2023-01-17T10:54:43.472Z,29.75
2023-01-17T10:57:29.308Z,25.80
2023-01-17T11:00:01.196Z,26.20
2023-01-17T11:02:37.992Z,24.63
2023-01-17T11:05:22.015Z,28.42
2023-01-17T11:08:24.515Z,28.15
2023-01-17T11:11:04.960Z,24.25
2023-01-17T11:13:38.710Z,24.48
2023-01-17T11:16:09.252Z,24.67
2023-01-17T11:18:54.280Z,27.15
2023-01-17T11:21:23.455Z,29.10
2023-01-17T11:24:09.066Z,26.45
2023-01-17T11:26:53.966Z,22.90
2023-01-17T11:29:37.527Z,25.23
2023-01-17T11:32:39.000Z,28.85
2023-01-17T11:35:48.122Z,30.23
2023-01-17T11:38:22.916Z,30.83
2023-01-17T11:41:16.450Z,34.20
2023-01-17T11:44:14.385Z,33.35
2023-01-17T11:46:41.070Z,29.42
2023-01-17T11:49:28.550Z,35.42
2023-01-17T11:52:08.097Z,35.35
2023-01-17T11:54:42.777Z,29.08
2023-01-17T11:57:32.984Z,31.60
2023-01-17T12:00:08.889Z,33.88
2023-01-17T12:02:51.086Z,32.65
2023-01-17T12:05:38.317Z,31.98
2023-01-17T12:08:19.721Z,32.65
2023-01-17T12:10:54.997Z,34.55
2023-01-17T12:17:11.727Z,33.00
2023-01-17T12:20:05.335Z,30.35
2023-01-17T12:23:02.925Z,30.20
2023-01-17T12:25:46.747Z,31.17
2023-01-17T12:28:24.802Z,31.52
2023-01-17T12:31:08.255Z,31.08
2023-01-17T12:33:55.031Z,29.42
2023-01-17T12:36:54.699Z,27.67
2023-01-17T12:39:27.183Z,24.60
2023-01-17T12:42:30.640Z,24.63
2023-01-17T12:45:05.295Z,23.92
2023-01-17T12:47:40.082Z,24.08
2023-01-17T12:50:38.806Z,18.42
2023-01-17T12:53:24.077Z,19.55
2023-01-17T12:56:29.758Z,19.17
2023-01-17T12:59:19.712Z,17.70
2023-01-17T13:01:58.898Z,16.38
2023-01-17T13:04:59.040Z,15.18
2023-01-17T13:07:48.989Z,13.20
2023-01-17T13:10:40.588Z,13.57
2023-01-17T13:13:28.488Z,12.52
2023-01-17T13:16:27.764Z,12.40
2023-01-17T13:19:18.843Z,9.90
2023-01-17T13:21:50.485Z,9.35
2023-01-17T13:24:49.913Z,8.80
2023-01-17T13:27:43.433Z,9.73
2023-01-17T13:30:18.925Z,10.25
2023-01-17T13:33:36.637Z,9.13
2023-01-17T13:36:34.649Z,8.45
2023-01-17T13:39:33.430Z,9.02
2023-01-17T13:42:30.773Z,8.40
2023-01-17T13:45:47.369Z,8.60
2023-01-17T13:48:20.819Z,8.52
2023-01-17T13:51:15.818Z,8.55
2023-01-17T13:54:15.417Z,7.68
2023-01-17T13:56:45.216Z,9.10
2023-01-17T13:59:32.255Z,9.32
2023-01-17T14:02:33.880Z,9.88
2023-01-17T14:05:10.129Z,8.98
2023-01-17T14:08:09.006Z,8.50
2023-01-17T14:10:52.129Z,8.77
2023-01-17T14:20:18.127Z,7.90
2023-01-17T14:26:16.688Z,7.10
2023-01-17T14:28:54.040Z,6.90
2023-01-17T14:31:24.331Z,6.43
2023-01-17T14:33:51.089Z,6.85
2023-01-17T14:36:28.209Z,6.35
2023-01-17T14:38:55.249Z,6.15
2023-01-17T14:41:26.494Z,5.88
2023-01-17T14:43:59.652Z,6.15
2023-01-17T14:46:35.660Z,6.80
2023-01-17T14:49:33.902Z,6.50
2023-01-17T14:52:02.868Z,6.88
2023-01-17T14:54:36.743Z,6.90
2023-01-17T14:57:28.126Z,6.60
2023-01-17T15:00:11.524Z,7.05
2023-01-17T15:03:02.388Z,7.63
2023-01-17T15:05:30.401Z,7.25
2023-01-17T15:08:06.706Z,7.70
2023-01-17T15:10:38.643Z,7.35
2023-01-17T15:13:10.930Z,7.60
2023-01-17T15:15:40.269Z,7.43
2023-01-17T15:18:31.576Z,7.25
2023-01-17T15:21:16.516Z,5.93
2023-01-17T15:23:49.404Z,5.65
2023-01-17T15:26:18.630Z,6.45
2023-01-17T15:32:05.847Z,8.30
2023-01-17T15:34:38.732Z,7.80
2023-01-17T15:38:04.126Z,9.07
2023-01-17T15:40:50.826Z,10.95
2023-01-17T15:43:35.987Z,9.00
2023-01-17T15:46:06.016Z,12.40
2023-01-17T15:48:44.837Z,8.98
2023-01-17T15:51:17.030Z,9.38
2023-01-17T15:53:44.400Z,12.02
2023-01-17T15:56:36.353Z,10.20
2023-01-17T15:59:29.515Z,13.10
2023-01-17T16:01:59.758Z,13.10
2023-01-17T16:04:45.590Z,13.75
2023-01-17T16:07:34.197Z,13.80
2023-01-17T16:10:23.388Z,11.75
2023-01-17T16:12:53.606Z,14.35
2023-01-17T16:15:20.807Z,14.05
2023-01-17T16:17:55.080Z,12.65
2023-01-17T16:20:41.615Z,14.25
2023-01-17T16:23:17.405Z,13.32
2023-01-17T16:25:47.951Z,14.98
2023-01-17T16:28:23.711Z,14.48
2023-01-17T16:30:59.391Z,14.75
2023-01-17T16:33:26.072Z,12.27
2023-01-17T16:35:54.583Z,13.13
2023-01-17T16:38:22.925Z,13.60
2023-01-17T16:40:56.244Z,12.90
2023-01-17T16:43:54.870Z,12.70
2023-01-17T16:49:19.099Z,13.77
2023-01-17T16:51:49.983Z,12.63
2023-01-17T16:54:28.841Z,12.23
2023-01-17T16:57:04.905Z,13.98
2023-01-17T16:59:50.339Z,12.68
2023-01-17T17:02:18.779Z,13.32
2023-01-17T17:04:48.603Z,13.85
2023-01-17T17:07:23.288Z,13.85
2023-01-17T17:09:54.326Z,14.20
2023-01-17T17:12:22.954Z,15.20
2023-01-17T17:17:37.091Z,14.65
2023-01-17T17:20:07.481Z,13.02
2023-01-17T17:22:34.218Z,15.60
2023-01-17T17:25:00.974Z,16.00
2023-01-17T17:27:30.686Z,16.35
2023-01-17T17:30:02.503Z,15.38
2023-01-17T17:32:30.363Z,16.25
2023-01-17T17:35:00.044Z,14.98
2023-01-17T17:38:12.175Z,15.43
2023-01-17T17:40:37.385Z,14.50
2023-01-17T17:43:09.887Z,13.45
2023-01-17T17:48:21.726Z,14.48
2023-01-17T17:51:12.056Z,13.73
2023-01-17T17:53:51.633Z,14.63
2023-01-17T17:56:29.338Z,15.45
2023-01-17T17:59:22.661Z,14.80
2023-01-17T18:01:52.269Z,13.55
2023-01-17T18:04:34.120Z,15.55
2023-01-17T18:07:02.478Z,11.67
2023-01-17T18:09:47.368Z,15.15
2023-01-17T18:12:20.241Z,16.40
2023-01-17T18:14:47.057Z,15.65
2023-01-17T18:17:19.090Z,17.35
2023-01-17T18:20:00.779Z,17.92
2023-01-17T18:22:29.052Z,17.40
2023-01-17T18:25:04.386Z,16.88
2023-01-17T18:27:33.331Z,15.73
2023-01-17T18:30:01.470Z,17.25
2023-01-17T18:32:47.759Z,17.05
2023-01-17T18:35:23.900Z,15.00
2023-01-17T18:38:00.160Z,15.38
2023-01-17T18:40:27.055Z,14.05
2023-01-17T18:43:00.086Z,15.07
2023-01-17T18:45:31.373Z,16.63
2023-01-17T18:48:13.516Z,15.90
2023-01-17T18:50:45.173Z,16.45
2023-01-17T18:53:22.992Z,16.70
2023-01-17T18:55:56.925Z,16.05
2023-01-17T18:58:25.312Z,15.00
2023-01-17T19:00:54.376Z,13.27
2023-01-17T19:03:31.057Z,17.20
2023-01-17T19:06:11.468Z,15.50
2023-01-17T19:08:51.955Z,16.10
2023-01-17T19:11:20.391Z,17.58
2023-01-17T19:13:50.240Z,17.50
2023-01-17T19:16:26.613Z,18.38
2023-01-17T19:19:04.023Z,17.95
2023-01-17T19:21:31.098Z,19.30
2023-01-17T19:24:04.473Z,18.95
2023-01-17T19:26:38.482Z,19.90
2023-01-17T19:29:09.364Z,19.25
2023-01-17T19:31:42.014Z,19.50
2023-01-17T19:34:18.960Z,18.95
2023-01-17T19:36:49.732Z,19.05
2023-01-17T19:39:20.667Z,19.30
2023-01-17T19:41:54.714Z,18.90
2023-01-17T19:44:21.637Z,19.25
2023-01-17T19:46:51.345Z,17.80
2023-01-17T19:49:28.909Z,16.58
2023-01-17T19:52:06.487Z,15.82
2023-01-17T19:54:40.037Z,16.23
2023-01-17T19:57:08.219Z,14.85
2023-01-17T19:59:38.264Z,17.73
2023-01-17T20:02:16.486Z,18.77
2023-01-17T20:05:13.714Z,18.10
2023-01-17T20:07:51.517Z,17.98
2023-01-17T20:10:34.227Z,17.70
2023-01-17T20:13:10.572Z,17.52
2023-01-17T20:15:53.210Z,16.13
2023-01-17T20:20:57.405Z,18.02
2023-01-17T20:23:24.370Z,17.08
2023-01-17T20:26:03.686Z,17.75
2023-01-17T20:29:00.850Z,18.88
2023-01-17T20:31:30.344Z,17.58
2023-01-17T20:33:58.202Z,15.50
2023-01-17T20:36:40.272Z,18.42
2023-01-17T20:39:12.531Z,18.15
2023-01-17T20:41:50.380Z,18.63
2023-01-17T20:44:31.572Z,18.70
2023-01-17T20:47:37.462Z,18.98
2023-01-17T20:50:10.935Z,18.75
2023-01-17T20:52:41.182Z,21.15
2023-01-17T20:55:11.828Z,18.77
2023-01-17T20:57:39.695Z,20.23
2023-01-17T21:00:15.964Z,20.52
2023-01-17T21:02:42.801Z,18.73
2023-01-17T21:05:20.303Z,20.77
2023-01-17T21:07:53.000Z,20.52
2023-01-17T21:10:22.865Z,20.67
2023-01-17T21:12:49.703Z,16.67
2023-01-17T21:15:25.880Z,17.33
2023-01-17T21:18:00.007Z,23.00
2023-01-17T21:20:34.908Z,17.33
2023-01-17T21:23:02.985Z,22.02
2023-01-17T21:25:31.529Z,22.70
2023-01-17T21:28:01.366Z,22.33
2023-01-17T21:30:29.398Z,17.38
2023-01-17T21:32:56.164Z,25.17
2023-01-17T21:35:23.013Z,20.10
2023-01-17T21:37:50.651Z,22.67
2023-01-17T21:40:38.665Z,24.48
2023-01-17T21:43:07.554Z,21.50
2023-01-17T21:45:44.371Z,23.88
2023-01-17T21:48:22.025Z,28.50
2023-01-17T21:51:00.768Z,26.52
2023-01-17T21:53:57.463Z,26.23
2023-01-17T21:56:55.539Z,25.98
2023-01-17T21:59:22.497Z,24.88
2023-01-17T22:01:56.700Z,26.20
2023-01-17T22:04:28.467Z,26.83
2023-01-17T22:06:55.361Z,28.27
2023-01-17T22:09:26.675Z,21.85
2023-01-17T22:11:58.334Z,27.73
2023-01-17T22:14:25.070Z,27.57
2023-01-17T22:16:53.384Z,19.20
2023-01-17T22:19:20.256Z,28.90
2023-01-17T22:22:07.388Z,28.52
2023-01-17T22:24:53.119Z,28.65
2023-01-17T22:27:37.442Z,30.23
2023-01-17T22:33:07.472Z,27.83
2023-01-17T22:35:48.302Z,29.00
2023-01-17T22:38:39.872Z,27.42
2023-01-17T22:41:33.053Z,28.63
2023-01-17T22:44:02.376Z,28.10
2023-01-17T22:49:46.203Z,28.73
2023-01-17T22:52:19.530Z,29.63
2023-01-17T22:55:04.166Z,29.77
2023-01-17T22:57:58.622Z,30.55
2023-01-17T23:00:40.507Z,29.65
2023-01-17T23:03:39.888Z,30.77
2023-01-17T23:06:47.902Z,28.20
2023-01-17T23:09:44.354Z,28.10
2023-01-17T23:12:29.530Z,22.98
2023-01-17T23:15:14.825Z,30.25
2023-01-17T23:18:03.219Z,27.65
2023-01-17T23:20:36.803Z,29.30
2023-01-17T23:23:17.993Z,29.25
2023-01-17T23:25:49.717Z,28.52
2023-01-17T23:28:21.030Z,29.37
2023-01-17T23:30:52.241Z,26.60
2023-01-17T23:33:29.608Z,29.15
2023-01-17T23:36:09.477Z,28.35
2023-01-17T23:38:45.265Z,32.17
2023-01-17T23:41:35.647Z,29.95
2023-01-17T23:44:21.752Z,29.48
2023-01-17T23:46:58.333Z,29.38
2023-01-17T23:49:25.757Z,30.75
2023-01-17T23:51:53.117Z,26.80
2023-01-17T23:54:35.639Z,28.52
2023-01-17T23:57:25.816Z,24.85
2023-01-17T23:59:56.036Z,24.60
